createdAt,value
2022-08-11T00:01:28.606Z,17.48
2022-08-11T00:04:05.144Z,17.42
2022-08-11T00:06:39.987Z,17.38
2022-08-11T00:09:14.053Z,17.42
2022-08-11T00:11:48.139Z,17.39
2022-08-11T00:14:21.481Z,17.42
2022-08-11T00:17:09.381Z,17.36
2022-08-11T00:20:12.373Z,17.26
2022-08-11T00:22:30.053Z,17.25
2022-08-11T00:25:02.152Z,17.30
2022-08-11T00:27:37.508Z,17.30
2022-08-11T00:30:06.205Z,17.17
2022-08-11T00:32:34.561Z,17.14
2022-08-11T00:35:56.230Z,17.11
2022-08-11T00:37:53.434Z,17.08
2022-08-11T00:40:53.162Z,17.08
2022-08-11T00:43:28.151Z,17.02
2022-08-11T00:45:54.903Z,17.04
2022-08-11T00:48:28.432Z,17.06
2022-08-11T00:51:18.977Z,17.07
2022-08-11T00:54:23.501Z,17.06
2022-08-11T00:57:10.347Z,17.03
2022-08-11T01:00:19.431Z,17.03
2022-08-11T01:03:47.739Z,17.03
2022-08-11T01:06:41.883Z,16.90
2022-08-11T01:10:10.443Z,16.85
2022-08-11T01:12:43.859Z,16.75
2022-08-11T01:16:04.250Z,16.79
2022-08-11T01:18:58.503Z,16.66
2022-08-11T01:21:49.657Z,16.75
2022-08-11T01:24:22.118Z,16.70
2022-08-11T01:27:18.967Z,16.66
2022-08-11T01:29:51.985Z,16.53
2022-08-11T01:32:56.913Z,16.45
2022-08-11T01:35:35.570Z,16.35
2022-08-11T01:38:13.327Z,16.31
2022-08-11T01:40:46.210Z,16.29
2022-08-11T01:44:19.764Z,16.32
2022-08-11T01:46:53.927Z,16.31
2022-08-11T01:50:08.482Z,16.34
2022-08-11T01:52:30.409Z,16.22
2022-08-11T01:55:30.063Z,16.35
2022-08-11T01:58:13.505Z,16.20
2022-08-11T02:00:53.638Z,16.16
2022-08-11T02:04:09.870Z,16.15
2022-08-11T02:06:57.089Z,16.08
2022-08-11T02:09:58.995Z,16.09
2022-08-11T02:12:52.315Z,16.02
2022-08-11T02:16:04.534Z,15.98
2022-08-11T02:18:57.575Z,15.91
2022-08-11T02:21:50.274Z,15.79
2022-08-11T02:24:35.026Z,15.65
2022-08-11T02:27:16.624Z,15.51
2022-08-11T02:29:51.401Z,15.53
2022-08-11T02:32:46.912Z,15.47
2022-08-11T02:35:43.015Z,15.42
2022-08-11T02:38:28.540Z,15.44
2022-08-11T02:41:28.773Z,15.42
2022-08-11T02:44:28.396Z,15.41
2022-08-11T02:47:09.335Z,15.42
2022-08-11T02:50:00.061Z,15.37
2022-08-11T02:53:02.266Z,15.32
2022-08-11T02:55:57.001Z,15.22
2022-08-11T02:58:41.777Z,15.19
2022-08-11T03:01:20.158Z,15.22
2022-08-11T03:04:03.877Z,15.24
2022-08-11T03:07:28.007Z,15.24
2022-08-11T03:10:03.386Z,15.00
2022-08-11T03:13:00.829Z,15.08
2022-08-11T03:15:56.793Z,14.99
2022-08-11T03:18:31.782Z,14.94
2022-08-11T03:21:11.415Z,14.86
2022-08-11T03:23:50.190Z,14.94
2022-08-11T03:26:29.669Z,14.91
2022-08-11T03:29:18.158Z,14.87
2022-08-11T03:31:49.785Z,14.84
2022-08-11T03:34:23.037Z,14.84
2022-08-11T03:37:45.821Z,14.81
2022-08-11T03:40:38.622Z,14.79
2022-08-11T03:43:30.095Z,14.84
2022-08-11T03:46:08.866Z,14.89
2022-08-11T03:48:47.965Z,14.93
2022-08-11T03:51:14.758Z,15.03
2022-08-11T03:54:23.699Z,15.03
2022-08-11T03:57:05.777Z,14.97
2022-08-11T03:59:44.995Z,14.98
2022-08-11T04:02:34.863Z,14.97
2022-08-11T04:05:26.378Z,15.01
2022-08-11T04:08:20.851Z,15.08
2022-08-11T04:11:05.616Z,15.15
2022-08-11T04:14:29.105Z,15.27
2022-08-11T04:17:25.219Z,15.34
2022-08-11T04:20:13.739Z,15.41
2022-08-11T04:23:05.234Z,15.47
2022-08-11T04:26:16.067Z,15.52
2022-08-11T04:29:10.626Z,15.65
2022-08-11T04:32:02.355Z,15.73
2022-08-11T04:35:07.275Z,15.84
2022-08-11T04:37:55.459Z,15.90
2022-08-11T04:40:51.154Z,15.98
2022-08-11T04:43:27.527Z,16.07
2022-08-11T04:46:33.069Z,16.11
2022-08-11T04:49:56.313Z,16.14
2022-08-11T04:53:06.591Z,16.24
2022-08-11T04:56:27.279Z,16.30
2022-08-11T04:59:45.507Z,16.47
2022-08-11T05:02:52.418Z,16.67
2022-08-11T05:05:31.300Z,16.73
2022-08-11T05:08:26.560Z,16.87
2022-08-11T05:11:21.081Z,16.97
2022-08-11T05:14:45.209Z,17.15
2022-08-11T05:17:40.635Z,17.27
2022-08-11T05:20:30.074Z,17.33
2022-08-11T05:23:23.314Z,17.48
2022-08-11T05:26:46.382Z,17.66
2022-08-11T05:29:21.917Z,17.85
2022-08-11T05:32:15.394Z,17.86
2022-08-11T05:34:54.511Z,17.93
2022-08-11T05:37:30.406Z,17.91
2022-08-11T05:40:28.221Z,17.81
2022-08-11T05:43:20.512Z,17.75
2022-08-11T05:46:20.850Z,17.80
2022-08-11T05:49:07.896Z,17.93
2022-08-11T05:52:05.631Z,18.03
2022-08-11T05:55:00.089Z,18.11
2022-08-11T05:57:48.316Z,18.24
2022-08-11T06:00:19.548Z,18.28
2022-08-11T06:02:55.445Z,18.41
2022-08-11T06:05:38.247Z,18.58
2022-08-11T06:08:12.917Z,18.73
2022-08-11T06:10:42.588Z,18.85
2022-08-11T06:13:10.971Z,19.00
2022-08-11T06:16:06.980Z,19.26
2022-08-11T06:18:35.173Z,19.47
2022-08-11T06:21:02.560Z,19.53
2022-08-11T06:23:35.911Z,19.62
2022-08-11T06:26:09.146Z,19.53
2022-08-11T06:28:40.570Z,19.60
2022-08-11T06:31:18.810Z,19.77
2022-08-11T06:34:01.665Z,19.85
2022-08-11T06:37:23.096Z,19.92
2022-08-11T06:40:04.452Z,19.99
2022-08-11T06:42:54.027Z,20.21
2022-08-11T06:45:27.026Z,20.38
2022-08-11T06:47:56.827Z,20.34
2022-08-11T06:50:42.722Z,20.54
2022-08-11T06:53:10.758Z,20.48
2022-08-11T06:55:59.852Z,20.60
2022-08-11T06:58:50.820Z,20.74
2022-08-11T07:01:47.701Z,20.94
2022-08-11T07:05:00.935Z,21.18
2022-08-11T07:08:34.641Z,21.34
2022-08-11T07:11:39.448Z,21.58
2022-08-11T07:14:26.641Z,21.82
2022-08-11T07:16:54.342Z,21.87
2022-08-11T07:19:46.786Z,22.13
2022-08-11T07:22:34.045Z,22.29
2022-08-11T07:25:33.916Z,22.64
2022-08-11T07:28:28.044Z,22.78
2022-08-11T07:31:00.817Z,22.89
2022-08-11T07:34:07.243Z,23.07
2022-08-11T07:36:30.659Z,23.09
2022-08-11T07:38:58.357Z,23.07
2022-08-11T07:41:28.713Z,23.19
2022-08-11T07:44:08.957Z,23.46
2022-08-11T07:47:15.482Z,23.69
2022-08-11T07:50:04.457Z,23.77
2022-08-11T07:52:37.271Z,23.87
2022-08-11T07:55:13.368Z,24.00
2022-08-11T07:58:15.733Z,24.19
2022-08-11T08:01:10.448Z,24.24
2022-08-11T08:04:07.047Z,24.24
2022-08-11T08:06:53.518Z,24.05
2022-08-11T08:09:40.679Z,24.28
2022-08-11T08:12:27.632Z,24.39
2022-08-11T08:15:15.316Z,24.58
2022-08-11T08:18:20.670Z,24.73
2022-08-11T08:20:50.395Z,24.91
2022-08-11T08:23:33.263Z,25.37
2022-08-11T08:26:27.583Z,25.57
2022-08-11T08:29:16.487Z,25.09
2022-08-11T08:31:43.977Z,24.59
2022-08-11T08:34:11.949Z,24.51
2022-08-11T08:36:42.898Z,24.51
2022-08-11T08:39:10.155Z,24.67
2022-08-11T08:41:38.911Z,24.93
2022-08-11T08:47:01.250Z,25.31
2022-08-11T08:49:40.656Z,25.47
2022-08-11T08:52:26.212Z,25.92
2022-08-11T08:55:04.439Z,26.25
2022-08-11T08:57:39.237Z,26.32
2022-08-11T09:00:07.775Z,26.39
2022-08-11T09:02:37.162Z,26.32
2022-08-11T09:05:05.668Z,26.27
2022-08-11T09:07:39.558Z,26.49
2022-08-11T09:10:09.776Z,26.63
2022-08-11T09:12:40.451Z,27.01
2022-08-11T09:15:10.620Z,27.41
2022-08-11T09:17:42.717Z,27.74
2022-08-11T09:20:21.824Z,27.78
2022-08-11T09:26:18.187Z,27.54
2022-08-11T09:28:47.149Z,27.79
2022-08-11T09:31:15.082Z,28.06
2022-08-11T09:33:43.953Z,28.35
2022-08-11T09:36:32.298Z,28.23
2022-08-11T09:39:19.441Z,28.29
2022-08-11T09:42:01.813Z,27.25
2022-08-11T09:44:48.714Z,27.01
2022-08-11T09:47:29.658Z,26.99
2022-08-11T09:50:01.680Z,26.77
2022-08-11T09:53:34.627Z,26.68
2022-08-11T09:55:35.769Z,26.61
2022-08-11T09:58:43.381Z,26.72
2022-08-11T10:01:05.480Z,27.32
2022-08-11T10:03:40.699Z,27.75
2022-08-11T10:06:34.398Z,27.34
2022-08-11T10:09:06.298Z,26.87
2022-08-11T10:11:36.652Z,26.58
2022-08-11T10:14:34.526Z,26.94
2022-08-11T10:17:08.153Z,27.35
2022-08-11T10:19:39.243Z,27.63
2022-08-11T10:22:27.563Z,27.57
2022-08-11T10:25:19.828Z,27.40
2022-08-11T10:28:33.118Z,27.91
2022-08-11T10:31:00.437Z,28.51
2022-08-11T10:33:57.700Z,28.93
2022-08-11T10:36:48.344Z,29.51
2022-08-11T10:39:20.571Z,28.86
2022-08-11T10:42:10.737Z,28.61
2022-08-11T10:44:46.062Z,28.62
2022-08-11T10:47:33.470Z,29.30
2022-08-11T10:50:23.748Z,30.10
2022-08-11T10:53:10.383Z,30.55
2022-08-11T10:55:58.371Z,30.79
2022-08-11T10:58:45.008Z,30.89
2022-08-11T11:01:13.234Z,30.47
2022-08-11T11:03:41.748Z,29.92
2022-08-11T11:06:29.423Z,29.11
2022-08-11T11:09:04.537Z,26.33
2022-08-11T11:11:56.866Z,23.45
2022-08-11T11:14:50.667Z,22.52
2022-08-11T11:17:48.209Z,22.53
2022-08-11T11:20:36.054Z,22.86
2022-08-11T11:23:16.913Z,23.29
2022-08-11T11:25:43.721Z,23.76
2022-08-11T11:28:49.049Z,24.52
2022-08-11T11:31:42.445Z,25.20
2022-08-11T11:34:21.029Z,25.63
2022-08-11T11:36:54.090Z,26.31
2022-08-11T11:39:23.970Z,27.13
2022-08-11T11:41:53.992Z,27.97
2022-08-11T11:44:25.351Z,28.76
2022-08-11T11:46:53.055Z,29.05
2022-08-11T11:51:58.535Z,29.12
2022-08-11T11:54:28.890Z,29.06
2022-08-11T11:56:58.158Z,29.15
2022-08-11T11:59:46.823Z,29.06
2022-08-11T12:02:16.365Z,29.05
2022-08-11T12:04:45.830Z,28.71
2022-08-11T12:07:31.557Z,28.69
2022-08-11T12:09:59.141Z,28.65
2022-08-11T12:12:45.085Z,28.85
2022-08-11T12:15:12.977Z,29.23
2022-08-11T12:17:40.342Z,29.36
2022-08-11T12:20:31.610Z,30.04
2022-08-11T12:23:16.389Z,30.46
2022-08-11T12:26:25.742Z,30.70
2022-08-11T12:28:51.603Z,30.35
2022-08-11T12:31:26.101Z,30.31
2022-08-11T12:33:54.048Z,30.83
2022-08-11T12:36:22.437Z,31.10
2022-08-11T12:38:52.353Z,31.05
2022-08-11T12:41:40.524Z,30.63
2022-08-11T12:44:29.519Z,30.46
2022-08-11T12:46:59.761Z,30.76
2022-08-11T12:49:49.793Z,30.18
2022-08-11T12:52:26.115Z,29.49
2022-08-11T12:55:13.793Z,29.31
2022-08-11T12:58:05.997Z,29.12
2022-08-11T13:00:52.327Z,29.45
2022-08-11T13:03:39.525Z,29.25
2022-08-11T13:06:07.809Z,28.61
2022-08-11T13:08:37.984Z,28.17
2022-08-11T13:11:24.432Z,27.72
2022-08-11T13:13:57.829Z,27.81
2022-08-11T13:16:27.859Z,28.58
2022-08-11T13:18:57.255Z,29.17
2022-08-11T13:21:24.957Z,29.32
2022-08-11T13:24:00.636Z,30.21
2022-08-11T13:26:48.884Z,31.58
2022-08-11T13:29:22.620Z,31.43
2022-08-11T13:31:50.988Z,32.20
2022-08-11T13:34:20.029Z,32.39
2022-08-11T13:36:49.623Z,32.53
2022-08-11T13:39:17.125Z,32.72
2022-08-11T13:41:46.918Z,33.11
2022-08-11T13:44:23.150Z,32.91
2022-08-11T13:46:55.390Z,32.45
2022-08-11T13:49:23.450Z,32.54
2022-08-11T13:51:52.536Z,32.14
2022-08-11T13:54:26.335Z,32.62
2022-08-11T13:56:56.382Z,32.90
2022-08-11T13:59:30.207Z,33.01
2022-08-11T14:02:21.872Z,33.94
2022-08-11T14:05:00.231Z,34.94
2022-08-11T14:07:35.778Z,35.83
2022-08-11T14:10:04.300Z,36.66
2022-08-11T14:12:53.080Z,36.53
2022-08-11T14:15:27.798Z,35.59
2022-08-11T14:17:58.122Z,35.20
2022-08-11T14:20:45.371Z,34.83
2022-08-11T14:23:15.348Z,34.95
2022-08-11T14:26:03.151Z,34.48
2022-08-11T14:28:37.847Z,35.10
2022-08-11T14:31:12.104Z,36.29
2022-08-11T14:33:59.689Z,37.01
2022-08-11T14:36:30.751Z,37.96
2022-08-11T14:38:58.162Z,37.57
2022-08-11T14:42:10.344Z,37.12
2022-08-11T14:44:55.046Z,36.07
2022-08-11T14:47:25.425Z,35.66
2022-08-11T14:50:05.056Z,35.35
2022-08-11T14:52:39.164Z,35.11
2022-08-11T14:55:27.319Z,35.71
2022-08-11T14:57:57.016Z,35.78
2022-08-11T15:00:25.036Z,35.70
2022-08-11T15:03:13.197Z,36.03
2022-08-11T15:05:56.107Z,35.52
2022-08-11T15:08:47.661Z,34.97
2022-08-11T15:11:36.019Z,34.37
2022-08-11T15:14:06.149Z,33.89
2022-08-11T15:16:52.811Z,34.07
2022-08-11T15:19:21.492Z,33.99
2022-08-11T15:22:08.896Z,34.25
2022-08-11T15:24:37.895Z,34.61
2022-08-11T15:27:27.627Z,34.29
2022-08-11T15:30:32.103Z,34.27
2022-08-11T15:33:20.228Z,34.46
2022-08-11T15:36:05.725Z,35.18
2022-08-11T15:38:36.843Z,35.50
2022-08-11T15:41:24.382Z,35.76
2022-08-11T15:44:14.119Z,35.52
2022-08-11T15:46:55.318Z,35.47
2022-08-11T15:50:11.755Z,36.23
2022-08-11T15:52:35.201Z,36.55
2022-08-11T15:55:08.725Z,36.28
2022-08-11T15:57:56.160Z,35.38
2022-08-11T16:00:42.011Z,34.12
2022-08-11T16:04:05.627Z,33.09
2022-08-11T16:06:17.143Z,32.62
2022-08-11T16:08:45.674Z,32.04
2022-08-11T16:11:13.865Z,31.34
2022-08-11T16:13:40.927Z,30.85
2022-08-11T16:16:17.276Z,30.29
2022-08-11T16:18:57.105Z,29.35
2022-08-11T16:21:34.569Z,28.88
2022-08-11T16:27:03.823Z,28.38
2022-08-11T16:27:12.420Z,27.90
2022-08-11T16:29:47.845Z,27.38
2022-08-11T16:32:20.718Z,27.00
2022-08-11T16:35:16.606Z,26.86
2022-08-11T16:38:14.822Z,26.79
2022-08-11T16:40:43.808Z,26.38
2022-08-11T16:43:34.524Z,26.08
2022-08-11T16:46:22.693Z,25.99
2022-08-11T16:48:50.904Z,25.86
2022-08-11T16:51:21.021Z,25.76
2022-08-11T16:54:03.885Z,25.64
2022-08-11T16:56:41.990Z,25.94
2022-08-11T16:59:17.084Z,26.48
2022-08-11T17:01:55.906Z,26.68
2022-08-11T17:05:10.452Z,26.77
2022-08-11T17:08:01.110Z,26.50
2022-08-11T17:11:07.875Z,26.40
2022-08-11T17:13:42.594Z,26.23
2022-08-11T17:16:12.950Z,26.13
2022-08-11T17:18:44.793Z,25.81
2022-08-11T17:21:14.141Z,25.59
2022-08-11T17:23:49.984Z,25.42
2022-08-11T17:26:24.282Z,25.30
2022-08-11T17:28:56.378Z,25.23
2022-08-11T17:31:43.609Z,24.97
2022-08-11T17:34:30.998Z,24.89
2022-08-11T17:36:57.850Z,24.75
2022-08-11T17:39:29.311Z,24.59
2022-08-11T17:42:15.595Z,24.42
2022-08-11T17:45:04.222Z,24.24
2022-08-11T17:47:50.588Z,23.99
2022-08-11T17:50:18.562Z,23.83
2022-08-11T17:53:05.552Z,23.72
2022-08-11T17:55:55.008Z,23.63
2022-08-11T17:58:42.100Z,23.44
2022-08-11T18:01:11.318Z,23.48
2022-08-11T18:03:40.799Z,23.36
2022-08-11T18:06:12.922Z,23.43
2022-08-11T18:09:03.273Z,23.42
2022-08-11T18:12:11.062Z,23.37
2022-08-11T18:14:59.260Z,23.41
2022-08-11T18:17:45.066Z,23.36
2022-08-11T18:20:30.413Z,23.06
2022-08-11T18:23:19.116Z,23.23
2022-08-11T18:26:07.602Z,23.16
2022-08-11T18:29:15.540Z,23.06
2022-08-11T18:32:08.164Z,23.02
2022-08-11T18:34:59.214Z,23.05
2022-08-11T18:37:49.560Z,22.98
2022-08-11T18:40:41.067Z,23.03
2022-08-11T18:43:30.725Z,23.00
2022-08-11T18:46:21.406Z,22.96
2022-08-11T18:49:15.654Z,23.01
2022-08-11T18:52:06.573Z,22.90
2022-08-11T18:54:55.888Z,22.75
2022-08-11T18:57:50.106Z,22.75
2022-08-11T19:00:41.329Z,22.85
2022-08-11T19:03:28.659Z,22.87
2022-08-11T19:06:38.395Z,22.88
2022-08-11T19:09:26.623Z,22.92
2022-08-11T19:12:13.568Z,22.87
2022-08-11T19:15:01.250Z,22.81
2022-08-11T19:17:49.788Z,22.73
2022-08-11T19:20:44.401Z,22.82
2022-08-11T19:23:31.460Z,22.79
2022-08-11T19:26:18.705Z,22.72
2022-08-11T19:29:06.424Z,22.69
2022-08-11T19:31:52.738Z,22.62
2022-08-11T19:34:40.724Z,22.53
2022-08-11T19:37:28.485Z,22.42
2022-08-11T19:40:19.809Z,22.31
2022-08-11T19:43:18.661Z,22.22
2022-08-11T19:46:11.872Z,22.09
2022-08-11T19:48:58.647Z,22.03
2022-08-11T19:51:45.771Z,21.87
2022-08-11T19:54:34.437Z,21.79
2022-08-11T19:57:22.827Z,21.65
2022-08-11T20:00:09.712Z,21.47
2022-08-11T20:02:55.294Z,21.43
2022-08-11T20:05:55.525Z,21.29
2022-08-11T20:08:48.280Z,21.08
2022-08-11T20:11:36.483Z,20.93
2022-08-11T20:14:25.277Z,20.80
2022-08-11T20:17:13.348Z,20.75
2022-08-11T20:22:49.410Z,20.52
2022-08-11T20:25:36.736Z,20.40
2022-08-11T20:28:25.441Z,20.33
2022-08-11T20:31:12.712Z,20.27
2022-08-11T20:33:59.462Z,20.15
2022-08-11T20:36:53.933Z,20.15
2022-08-11T20:39:42.034Z,20.12
2022-08-11T20:42:30.776Z,20.08
2022-08-11T20:45:23.305Z,20.05
2022-08-11T20:48:14.794Z,20.01
2022-08-11T20:51:07.325Z,19.93
2022-08-11T20:53:58.937Z,19.91
2022-08-11T20:56:54.018Z,19.91
2022-08-11T20:59:56.259Z,19.90
2022-08-11T21:02:45.935Z,19.84
2022-08-11T21:06:10.122Z,19.71
2022-08-11T21:08:48.537Z,19.63
2022-08-11T21:11:35.136Z,19.55
2022-08-11T21:14:23.409Z,19.48
2022-08-11T21:17:27.402Z,19.40
2022-08-11T21:20:20.627Z,19.30
2022-08-11T21:23:13.104Z,19.06
2022-08-11T21:26:20.638Z,19.16
2022-08-11T21:29:08.981Z,19.18
2022-08-11T21:31:55.156Z,19.11
2022-08-11T21:34:42.568Z,19.03
2022-08-11T21:37:28.775Z,19.13
2022-08-11T21:40:18.827Z,19.10
2022-08-11T21:43:06.714Z,19.09
2022-08-11T21:45:55.529Z,19.22
2022-08-11T21:48:43.753Z,19.25
2022-08-11T21:51:29.095Z,19.26
2022-08-11T21:54:17.019Z,19.16
2022-08-11T21:57:04.742Z,19.12
2022-08-11T22:00:11.912Z,19.19
2022-08-11T22:02:58.120Z,19.24
2022-08-11T22:05:45.164Z,19.29
2022-08-11T22:08:31.892Z,19.33
2022-08-11T22:11:32.429Z,19.31
2022-08-11T22:14:22.675Z,19.41
2022-08-11T22:17:09.379Z,19.47
2022-08-11T22:19:56.190Z,19.53
2022-08-11T22:22:52.113Z,19.54
2022-08-11T22:25:51.565Z,19.58
2022-08-11T22:28:39.267Z,19.48
2022-08-11T22:31:25.537Z,19.61
2022-08-11T22:34:11.264Z,19.60
2022-08-11T22:36:57.789Z,19.61
2022-08-11T22:39:45.202Z,19.63
2022-08-11T22:42:46.469Z,19.62
2022-08-11T22:45:32.682Z,19.55
2022-08-11T22:48:20.446Z,19.66
2022-08-11T22:51:07.837Z,19.61
2022-08-11T22:53:57.619Z,19.65
2022-08-11T22:56:48.682Z,19.64
2022-08-11T22:59:36.993Z,19.63
2022-08-11T23:02:23.716Z,19.57
2022-08-11T23:05:10.084Z,19.51
2022-08-11T23:07:57.133Z,19.53
2022-08-11T23:10:43.086Z,19.48
2022-08-11T23:13:28.320Z,19.46
2022-08-11T23:16:15.369Z,19.47
2022-08-11T23:19:01.402Z,19.48
2022-08-11T23:21:47.963Z,19.44
2022-08-11T23:24:34.434Z,19.38
2022-08-11T23:27:21.466Z,19.33
2022-08-11T23:30:11.477Z,19.31
2022-08-11T23:32:58.080Z,19.31
2022-08-11T23:35:53.911Z,19.26
2022-08-11T23:38:44.064Z,19.27
2022-08-11T23:41:31.805Z,19.24
2022-08-11T23:44:18.584Z,19.26
2022-08-11T23:47:07.140Z,19.33
2022-08-11T23:49:55.819Z,19.33
2022-08-11T23:52:44.183Z,19.27
2022-08-11T23:55:29.930Z,19.27
2022-08-11T23:58:16.269Z,19.26
